KTPH/TPH METAR and TAF weather

Enter ICAO airport designator
Station Type Date Time Source
KTPH METAR 2022/06/23 20:56 UTC NOAA

KTPH 232056Z AUTO 18016G21KT 10SM CLR 28/01 A3008 RMK AO2 SLP121 T02780006 58019


Station Type Date Time Source
KTPH Decoded METAR 2022/06/23 20:56 UTC NOAA

TONOPAH AIRPORT, NV, United States (KTPH) 38-02N 117-05W 1652M
Jun 23, 2022 - 04:56 PM EDT / 2022.06.23 2056 UTC
Wind: from the S (180 degrees) at 18 MPH (16 KT) gusting to 24 MPH (21 KT):0
Visibility: 10 mile(s):0
Sky conditions: clear
Temperature: 82.0 F (27.8 C)
Dew Point: 33.1 F (0.6 C)
Relative Humidity: 17%
Pressure (altimeter): 30.08 in. Hg (1018 hPa)
Pressure tendency: 0.06 inches (1.9 hPa) lower than three hours ago
ob: KTPH 232056Z AUTO 18016G21KT 10SM CLR 28/01 A3008 RMK AO2 SLP121 T02780006 58019
cycle: 21

Station Type Date Time Source
KTPH TAF 2022/06/28 12:30 UTC NOAA

TAF KTPH 281129Z 2812/2912 VRB06KT P6SM SKC
FM282000 22015G25KT P6SM SCT110

Example: see airport list